Flight Track Log - Related Links

Times and Time Zones

All times are in EDT time to prevent confusion due to time zone crossing. See the RPA3196 flight status page for this flight to view local times or setup timezone preferences in your user account.

Time Position Orientation Groundspeed Altitude Reporting Facility
EDT Latitude Longitude Course Direction KTS MPH feet Rate Location/Type
Sun 09:49:27 AM 39.8833 -75.2167 37° Northeast 128 147 1,000  Level Philadelphia TRACON
Sun 09:50:03 AM 39.8667 -75.2000 142° Southeast 147 169 2,000 2,267 Climbing Philadelphia TRACON
Sun 09:52:00 AM 39.7972 -74.7692 105° East  Level FlightAware Approximate
Sun 09:52:19 AM 39.8444 -75.0400 100° East 214 246 7,500  Level New York Center
Sun 09:53:00 AM 39.8134 -74.6699 37° Northeast  Level FlightAware Approximate
Sun 09:53:20 AM 39.8256 -74.9308 103° East 259 298 10,900  Level New York Center
Sun 09:54:00 AM 39.8871 -74.5963 37° Northeast  Level FlightAware Approximate
Sun 09:54:17 AM 39.8119 -74.8381 101° East 277 319 12,200  Level New York Center
Sun 09:55:18 AM 39.8036 -74.7186 95° East 289 333 15,500 2,777 Climbing New York Center
Sun 09:56:18 AM 39.8667 -74.6439 42° Northeast 267 307 17,800 2,380 Climbing New York Center
Sun 09:57:19 AM 39.9417 -74.5747 35° Northeast 286 329 20,300 2,380 Climbing New York Center
Sun 09:58:19 AM 40.0169 -74.5058 35° Northeast 311 358 22,600 2,200 Climbing New York Center
Sun 09:59:19 AM 40.0817 -74.4333 41° Northeast 328 377 24,700 1,210 Climbing New York Center
Sun 10:00:18 AM 40.1667 -74.3833 24° Northeast 333 383 25,000 151 Climbing New York Center
Sun 10:01:18 AM 40.2594 -74.3503 15° North 333 383 25,000  Level New York Center
Sun 10:02:18 AM 40.3500 -74.3194 15° North 338 389 25,000  Level New York Center
Sun 10:03:19 AM 40.4447 -74.2836 16° North 338 389 25,000  Level New York Center
Sun 10:05:26 AM 40.6525 -74.2100 15° North 338 389 25,000  Level Boston Center
Sun 10:06:26 AM 40.7511 -74.1797 13° North 344 396 25,000  Level Boston Center
Sun 10:07:26 AM 40.8433 -74.1467 15° North 344 396 25,000  Level Boston Center
Sun 10:08:26 AM 40.9353 -74.1161 14° North 339 390 25,000  Level Boston Center
Sun 10:09:26 AM 41.0317 -74.0883 12° North 339 390 25,000  Level Boston Center
Sun 10:10:26 AM 41.1258 -74.0631 11° North 339 390 25,000  Level Boston Center
Sun 10:11:26 AM 41.2094 -74.0403 12° North 339 390 25,000  Level Boston Center
Sun 10:12:26 AM 41.3036 -74.0178 10° North 334 384 25,000  Level Boston Center
Sun 10:13:26 AM 41.3978 -73.9953 10° North 334 384 25,000  Level Boston Center
Sun 10:14:26 AM 41.4919 -73.9669 13° North 334 384 25,000  Level Boston Center
Sun 10:15:26 AM 41.5858 -73.9444 10° North 334 384 25,000  Level Boston Center
Sun 10:16:26 AM 41.6781 -73.9189 12° North 334 384 25,000  Level Boston Center
Sun 10:17:26 AM 41.7700 -73.8931 12° North 334 384 25,000  Level Boston Center
Sun 10:18:26 AM 41.8600 -73.8728 10° North 327 376 25,000  Level Boston Center
Sun 10:19:26 AM 41.9519 -73.8497 11° North 327 376 25,000  Level Boston Center
Sun 10:20:26 AM 42.0522 -73.8214 12° North 334 384 25,000  Level Boston Center
Sun 10:21:26 AM 42.1381 -73.8008 10° North 334 384 25,000  Level Boston Center
Sun 10:22:26 AM 42.2278 -73.7775 11° North 334 384 25,000  Level Boston Center
Sun 10:23:26 AM 42.3197 -73.7542 11° North 334 384 25,000  Level Boston Center
Sun 10:24:26 AM 42.4119 -73.7281 12° North 334 384 25,000  Level Boston Center
Sun 10:25:26 AM 42.5017 -73.7044 11° North 334 384 25,000  Level Boston Center
Sun 10:26:26 AM 42.5917 -73.6781 12° North 334 384 25,000  Level Boston Center
Sun 10:27:26 AM 42.6836 -73.6544 11° North 334 384 25,000  Level Boston Center
Sun 10:28:26 AM 42.7756 -73.6308 11° North 334 384 25,000  Level Boston Center
Sun 10:29:26 AM 42.8739 -73.6017 12° North 334 384 25,000  Level Boston Center
Sun 10:30:26 AM 42.9617 -73.5778 11° North 323 372 25,000  Level Boston Center
Sun 10:31:26 AM 43.0514 -73.5511 12° North 323 372 25,000  Level Boston Center
Sun 10:32:26 AM 43.1247 -73.5325 10° North 328 377 25,000 -200 Level Boston Center
Sun 10:33:26 AM 43.2269 -73.5000 13° North 328 377 24,600 -500 Descending Boston Center
Sun 10:34:26 AM 43.3169 -73.4758 11° North 333 383 24,000 -300 Descending Boston Center
Sun 10:35:26 AM 43.4089 -73.4517 11° North 333 383 24,000 -100 Level Boston Center
Sun 10:36:26 AM 43.4986 -73.4275 11° North 333 383 23,800 -500 Descending Boston Center
Sun 10:37:26 AM 43.5883 -73.4033 11° North 333 383 23,000 -1,400 Descending Boston Center
Sun 10:38:26 AM 43.6886 -73.3761 11° North 333 383 21,000 -1,850 Descending Boston Center
Sun 10:39:26 AM 43.7681 -73.3514 13° North 333 383 19,300 -1,700 Descending Boston Center
Sun 10:40:26 AM 43.8536 -73.3297 10° North 321 369 17,600 -1,900 Descending Boston Center
Sun 10:41:26 AM 43.9372 -73.3050 12° North 308 354 15,500 -2,000 Descending Boston Center
Sun 10:42:26 AM 44.0228 -73.2803 12° North 308 354 13,600 -1,900 Descending Boston Center
Sun 10:43:26 AM 44.1042 -73.2697 North 302 348 11,700 -1,800 Descending Boston Center
Sun 10:44:26 AM 44.1853 -73.2797 355° North 291 335 10,000 -1,750 Descending Boston Center
Sun 10:45:26 AM 44.2622 -73.2953 352° North 285 328 8,200 -1,500 Descending Boston Center
Sun 10:46:26 AM 44.3350 -73.3078 353° North 273 314 7,000 -1,300 Descending Boston Center
Sun 10:47:26 AM 44.4100 -73.3236 351° North 253 291 5,600 -1,300 Descending Boston Center
Sun 10:48:26 AM 44.4722 -73.3478 345° North 233 268 4,400 -1,050 Descending Boston Center
Sun 10:49:26 AM 44.5161 -73.3281 18° North 205 236 3,500 -600 Descending Boston Center
Sun 10:50:26 AM 44.5333 -73.2672 68° East 158 182 3,200 -950 Descending Boston Center
Sun 10:51:26 AM 44.5169 -73.2261 119° Southeast 126 145 1,600 -1,200 Descending Boston Center
Sun 10:52:26 AM 44.4944 -73.1881 130° Southeast 116 133 800 -650 Descending Boston Center
Sun 10:53:26 AM 44.4717 -73.1558 135° Southeast 129 148 300 -500 Descending Boston Center

Login

Don't have an account? Register now (free) for customized features, flight alerts, and more!